sensor_id;sensor_type;location;lat;lon;timestamp;P1;durP1;ratioP1;P2;durP2;ratioP2
72603;SDS011;60645;56.968;24.196;2022-08-01T00:00:06;1.92;;;0.82;;
72603;SDS011;60645;56.968;24.196;2022-08-01T00:02:38;2.25;;;0.70;;
72603;SDS011;60645;56.968;24.196;2022-08-01T00:05:07;4.20;;;0.55;;
72603;SDS011;60645;56.968;24.196;2022-08-01T00:07:35;1.08;;;0.52;;
72603;SDS011;60645;56.968;24.196;2022-08-01T00:10:03;1.05;;;0.55;;
72603;SDS011;60645;56.968;24.196;2022-08-01T00:12:31;1.20;;;0.50;;
72603;SDS011;60645;56.968;24.196;2022-08-01T00:14:58;2.08;;;0.55;;
72603;SDS011;60645;56.968;24.196;2022-08-01T00:17:25;0.95;;;0.40;;
72603;SDS011;60645;56.968;24.196;2022-08-01T00:19:52;1.33;;;0.35;;
72603;SDS011;60645;56.968;24.196;2022-08-01T00:22:19;0.90;;;0.50;;
72603;SDS011;60645;56.968;24.196;2022-08-01T00:24:46;1.20;;;0.70;;
72603;SDS011;60645;56.968;24.196;2022-08-01T00:27:13;3.58;;;0.50;;
72603;SDS011;60645;56.968;24.196;2022-08-01T00:29:40;2.50;;;0.90;;
72603;SDS011;60645;56.968;24.196;2022-08-01T00:32:26;3.17;;;0.60;;
72603;SDS011;60645;56.968;24.196;2022-08-01T00:34:55;2.33;;;0.80;;
72603;SDS011;60645;56.968;24.196;2022-08-01T00:37:23;1.10;;;0.50;;
72603;SDS011;60645;56.968;24.196;2022-08-01T00:39:50;1.33;;;0.70;;
72603;SDS011;60645;56.968;24.196;2022-08-01T00:42:17;1.50;;;0.57;;
72603;SDS011;60645;56.968;24.196;2022-08-01T00:44:43;3.30;;;0.60;;
72603;SDS011;60645;56.968;24.196;2022-08-01T00:47:11;2.72;;;0.70;;
72603;SDS011;60645;56.968;24.196;2022-08-01T00:49:38;1.70;;;0.50;;
72603;SDS011;60645;56.968;24.196;2022-08-01T00:52:05;1.55;;;0.50;;
72603;SDS011;60645;56.968;24.196;2022-08-01T00:54:34;1.25;;;0.65;;
72603;SDS011;60645;56.968;24.196;2022-08-01T00:57:02;1.75;;;0.60;;
72603;SDS011;60645;56.968;24.196;2022-08-01T00:59:29;2.00;;;0.70;;
72603;SDS011;60645;56.968;24.196;2022-08-01T01:01:57;2.47;;;0.63;;
72603;SDS011;60645;56.968;24.196;2022-08-01T01:04:24;2.20;;;1.02;;
72603;SDS011;60645;56.968;24.196;2022-08-01T01:12:36;1.13;;;0.60;;
72603;SDS011;60645;56.968;24.196;2022-08-01T01:15:16;2.20;;;0.70;;
72603;SDS011;60645;56.968;24.196;2022-08-01T01:17:51;1.50;;;0.65;;
72603;SDS011;60645;56.968;24.196;2022-08-01T01:20:24;1.40;;;0.63;;
72603;SDS011;60645;56.968;24.196;2022-08-01T01:29:08;1.50;;;0.63;;
72603;SDS011;60645;56.968;24.196;2022-08-01T01:34:13;1.20;;;0.50;;
72603;SDS011;60645;56.968;24.196;2022-08-01T01:36:43;2.92;;;0.63;;
72603;SDS011;60645;56.968;24.196;2022-08-01T01:39:12;2.03;;;0.63;;
72603;SDS011;60645;56.968;24.196;2022-08-01T01:41:41;1.98;;;0.55;;
72603;SDS011;60645;56.968;24.196;2022-08-01T01:44:10;1.48;;;0.57;;
72603;SDS011;60645;56.968;24.196;2022-08-01T01:46:38;1.77;;;0.60;;
72603;SDS011;60645;56.968;24.196;2022-08-01T01:49:06;2.25;;;0.75;;
72603;SDS011;60645;56.968;24.196;2022-08-01T01:51:38;2.20;;;1.27;;
72603;SDS011;60645;56.968;24.196;2022-08-01T01:54:28;1.20;;;0.73;;
72603;SDS011;60645;56.968;24.196;2022-08-01T01:56:59;2.47;;;0.85;;
72603;SDS011;60645;56.968;24.196;2022-08-01T01:59:29;2.20;;;0.50;;
72603;SDS011;60645;56.968;24.196;2022-08-01T02:01:59;1.40;;;0.77;;
72603;SDS011;60645;56.968;24.196;2022-08-01T02:04:32;2.15;;;0.73;;
72603;SDS011;60645;56.968;24.196;2022-08-01T02:07:01;1.58;;;0.75;;
72603;SDS011;60645;56.968;24.196;2022-08-01T02:09:29;1.52;;;0.75;;
72603;SDS011;60645;56.968;24.196;2022-08-01T02:11:58;2.53;;;0.85;;
72603;SDS011;60645;56.968;24.196;2022-08-01T02:14:34;2.35;;;0.77;;
72603;SDS011;60645;56.968;24.196;2022-08-01T02:17:02;2.35;;;0.55;;
72603;SDS011;60645;56.968;24.196;2022-08-01T02:19:30;1.52;;;0.65;;
72603;SDS011;60645;56.968;24.196;2022-08-01T02:22:08;2.42;;;0.63;;
72603;SDS011;60645;56.968;24.196;2022-08-01T02:24:57;1.52;;;0.88;;
72603;SDS011;60645;56.968;24.196;2022-08-01T02:27:29;1.10;;;0.50;;
72603;SDS011;60645;56.968;24.196;2022-08-01T02:30:05;3.75;;;0.93;;
72603;SDS011;60645;56.968;24.196;2022-08-01T02:32:35;3.10;;;0.70;;
72603;SDS011;60645;56.968;24.196;2022-08-01T02:35:07;1.83;;;0.60;;
72603;SDS011;60645;56.968;24.196;2022-08-01T02:37:39;2.85;;;0.85;;
72603;SDS011;60645;56.968;24.196;2022-08-01T02:40:12;1.95;;;0.60;;
72603;SDS011;60645;56.968;24.196;2022-08-01T02:42:42;2.92;;;0.57;;
72603;SDS011;60645;56.968;24.196;2022-08-01T02:45:11;1.42;;;0.57;;
72603;SDS011;60645;56.968;24.196;2022-08-01T02:47:40;1.38;;;0.63;;
72603;SDS011;60645;56.968;24.196;2022-08-01T02:50:09;0.55;;;0.30;;
72603;SDS011;60645;56.968;24.196;2022-08-01T02:52:38;4.15;;;0.60;;
72603;SDS011;60645;56.968;24.196;2022-08-01T02:55:08;1.05;;;0.50;;
72603;SDS011;60645;56.968;24.196;2022-08-01T02:57:36;1.85;;;0.60;;
72603;SDS011;60645;56.968;24.196;2022-08-01T03:00:17;3.00;;;1.27;;
72603;SDS011;60645;56.968;24.196;2022-08-01T03:02:44;1.08;;;0.40;;
72603;SDS011;60645;56.968;24.196;2022-08-01T03:05:16;1.95;;;0.40;;
72603;SDS011;60645;56.968;24.196;2022-08-01T03:07:44;1.40;;;0.47;;
72603;SDS011;60645;56.968;24.196;2022-08-01T03:10:13;2.13;;;1.02;;
72603;SDS011;60645;56.968;24.196;2022-08-01T03:12:42;2.75;;;0.70;;
72603;SDS011;60645;56.968;24.196;2022-08-01T03:15:13;0.90;;;0.50;;
72603;SDS011;60645;56.968;24.196;2022-08-01T03:17:41;1.00;;;0.50;;
72603;SDS011;60645;56.968;24.196;2022-08-01T03:20:10;2.88;;;0.93;;
72603;SDS011;60645;56.968;24.196;2022-08-01T03:22:40;0.85;;;0.43;;
72603;SDS011;60645;56.968;24.196;2022-08-01T03:25:09;1.17;;;0.40;;
72603;SDS011;60645;56.968;24.196;2022-08-01T03:27:37;1.40;;;0.30;;
72603;SDS011;60645;56.968;24.196;2022-08-01T03:30:08;1.00;;;0.38;;
72603;SDS011;60645;56.968;24.196;2022-08-01T03:32:36;1.63;;;0.45;;
72603;SDS011;60645;56.968;24.196;2022-08-01T03:35:04;1.17;;;0.32;;
72603;SDS011;60645;56.968;24.196;2022-08-01T03:37:36;2.75;;;0.50;;
72603;SDS011;60645;56.968;24.196;2022-08-01T03:40:35;1.10;;;0.47;;
72603;SDS011;60645;56.968;24.196;2022-08-01T03:43:07;1.30;;;0.50;;
72603;SDS011;60645;56.968;24.196;2022-08-01T03:45:38;2.30;;;0.32;;
72603;SDS011;60645;56.968;24.196;2022-08-01T03:48:12;1.05;;;0.43;;
72603;SDS011;60645;56.968;24.196;2022-08-01T03:50:43;0.68;;;0.32;;
72603;SDS011;60645;56.968;24.196;2022-08-01T03:53:14;1.00;;;0.30;;
72603;SDS011;60645;56.968;24.196;2022-08-01T03:55:42;1.27;;;0.47;;
72603;SDS011;60645;56.968;24.196;2022-08-01T03:58:10;2.95;;;0.70;;
72603;SDS011;60645;56.968;24.196;2022-08-01T04:00:39;1.05;;;0.32;;
72603;SDS011;60645;56.968;24.196;2022-08-01T04:03:10;0.40;;;0.32;;
72603;SDS011;60645;56.968;24.196;2022-08-01T04:05:40;1.50;;;0.70;;
72603;SDS011;60645;56.968;24.196;2022-08-01T04:08:08;1.23;;;0.40;;
72603;SDS011;60645;56.968;24.196;2022-08-01T04:10:36;0.73;;;0.60;;
72603;SDS011;60645;56.968;24.196;2022-08-01T04:13:03;1.10;;;0.60;;
72603;SDS011;60645;56.968;24.196;2022-08-01T04:15:30;1.30;;;0.13;;
72603;SDS011;60645;56.968;24.196;2022-08-01T04:17:57;0.50;;;0.30;;
72603;SDS011;60645;56.968;24.196;2022-08-01T04:20:24;1.25;;;0.20;;
72603;SDS011;60645;56.968;24.196;2022-08-01T04:22:51;0.85;;;0.30;;
72603;SDS011;60645;56.968;24.196;2022-08-01T04:25:23;0.43;;;0.35;;
72603;SDS011;60645;56.968;24.196;2022-08-01T04:27:53;0.50;;;0.13;;
72603;SDS011;60645;56.968;24.196;2022-08-01T04:30:22;0.70;;;0.25;;
72603;SDS011;60645;56.968;24.196;2022-08-01T04:35:20;0.80;;;0.32;;
72603;SDS011;60645;56.968;24.196;2022-08-01T04:38:09;1.48;;;0.25;;
72603;SDS011;60645;56.968;24.196;2022-08-01T04:40:42;4.43;;;0.40;;
72603;SDS011;60645;56.968;24.196;2022-08-01T04:43:11;2.92;;;0.32;;
72603;SDS011;60645;56.968;24.196;2022-08-01T04:45:40;1.73;;;0.20;;
72603;SDS011;60645;56.968;24.196;2022-08-01T04:48:10;2.10;;;0.45;;
72603;SDS011;60645;56.968;24.196;2022-08-01T04:50:40;0.80;;;0.30;;
72603;SDS011;60645;56.968;24.196;2022-08-01T04:53:14;2.35;;;0.30;;
72603;SDS011;60645;56.968;24.196;2022-08-01T04:55:44;8.07;;;0.40;;
72603;SDS011;60645;56.968;24.196;2022-08-01T04:58:12;3.63;;;0.30;;
72603;SDS011;60645;56.968;24.196;2022-08-01T05:00:43;4.32;;;0.30;;
72603;SDS011;60645;56.968;24.196;2022-08-01T05:03:11;1.25;;;0.30;;
72603;SDS011;60645;56.968;24.196;2022-08-01T05:05:38;1.63;;;0.20;;
72603;SDS011;60645;56.968;24.196;2022-08-01T05:08:05;2.03;;;0.38;;
72603;SDS011;60645;56.968;24.196;2022-08-01T05:10:32;1.63;;;0.22;;
72603;SDS011;60645;56.968;24.196;2022-08-01T05:13:00;4.28;;;0.30;;
72603;SDS011;60645;56.968;24.196;2022-08-01T05:15:27;1.88;;;0.40;;
72603;SDS011;60645;56.968;24.196;2022-08-01T05:17:54;3.78;;;0.35;;
72603;SDS011;60645;56.968;24.196;2022-08-01T05:20:22;3.38;;;0.20;;
72603;SDS011;60645;56.968;24.196;2022-08-01T05:22:49;1.85;;;0.30;;
72603;SDS011;60645;56.968;24.196;2022-08-01T05:25:16;1.17;;;0.22;;
72603;SDS011;60645;56.968;24.196;2022-08-01T05:27:46;0.30;;;0.20;;
72603;SDS011;60645;56.968;24.196;2022-08-01T05:30:16;0.40;;;0.20;;
72603;SDS011;60645;56.968;24.196;2022-08-01T05:32:43;1.25;;;0.13;;
72603;SDS011;60645;56.968;24.196;2022-08-01T05:35:10;5.18;;;0.45;;
72603;SDS011;60645;56.968;24.196;2022-08-01T05:37:37;1.63;;;0.32;;
72603;SDS011;60645;56.968;24.196;2022-08-01T05:40:04;0.80;;;0.50;;
72603;SDS011;60645;56.968;24.196;2022-08-01T05:42:32;0.70;;;0.50;;
72603;SDS011;60645;56.968;24.196;2022-08-01T05:44:58;1.35;;;0.40;;
72603;SDS011;60645;56.968;24.196;2022-08-01T05:47:25;1.02;;;0.35;;
72603;SDS011;60645;56.968;24.196;2022-08-01T05:49:52;1.13;;;0.45;;
72603;SDS011;60645;56.968;24.196;2022-08-01T05:52:19;2.38;;;0.30;;
72603;SDS011;60645;56.968;24.196;2022-08-01T05:54:46;0.80;;;0.40;;
72603;SDS011;60645;56.968;24.196;2022-08-01T05:57:13;0.65;;;0.43;;
72603;SDS011;60645;56.968;24.196;2022-08-01T05:59:40;1.05;;;0.30;;
72603;SDS011;60645;56.968;24.196;2022-08-01T06:02:07;0.75;;;0.22;;
72603;SDS011;60645;56.968;24.196;2022-08-01T06:04:35;1.98;;;0.38;;
72603;SDS011;60645;56.968;24.196;2022-08-01T06:07:02;1.90;;;0.40;;
72603;SDS011;60645;56.968;24.196;2022-08-01T06:09:31;0.73;;;0.45;;
72603;SDS011;60645;56.968;24.196;2022-08-01T06:11:58;0.77;;;0.20;;
72603;SDS011;60645;56.968;24.196;2022-08-01T06:14:25;1.67;;;0.43;;
72603;SDS011;60645;56.968;24.196;2022-08-01T06:16:52;1.50;;;0.32;;
72603;SDS011;60645;56.968;24.196;2022-08-01T06:19:19;2.85;;;0.50;;
72603;SDS011;60645;56.968;24.196;2022-08-01T06:21:46;0.70;;;0.50;;
72603;SDS011;60645;56.968;24.196;2022-08-01T06:24:13;1.00;;;0.25;;
72603;SDS011;60645;56.968;24.196;2022-08-01T06:26:40;0.93;;;0.35;;
72603;SDS011;60645;56.968;24.196;2022-08-01T06:29:07;0.70;;;0.32;;
72603;SDS011;60645;56.968;24.196;2022-08-01T06:31:35;0.50;;;0.20;;
72603;SDS011;60645;56.968;24.196;2022-08-01T06:34:02;0.85;;;0.63;;
72603;SDS011;60645;56.968;24.196;2022-08-01T06:36:29;0.57;;;0.50;;
72603;SDS011;60645;56.968;24.196;2022-08-01T06:38:56;0.80;;;0.20;;
72603;SDS011;60645;56.968;24.196;2022-08-01T06:41:23;1.23;;;0.40;;
72603;SDS011;60645;56.968;24.196;2022-08-01T06:43:49;0.60;;;0.28;;
72603;SDS011;60645;56.968;24.196;2022-08-01T06:46:16;0.93;;;0.45;;
72603;SDS011;60645;56.968;24.196;2022-08-01T06:48:43;13.70;;;1.17;;
72603;SDS011;60645;56.968;24.196;2022-08-01T06:51:10;4.22;;;0.88;;
72603;SDS011;60645;56.968;24.196;2022-08-01T06:53:44;1.90;;;0.22;;
72603;SDS011;60645;56.968;24.196;2022-08-01T06:56:11;1.05;;;0.22;;
72603;SDS011;60645;56.968;24.196;2022-08-01T06:58:38;1.20;;;0.32;;
72603;SDS011;60645;56.968;24.196;2022-08-01T07:01:05;0.50;;;0.38;;
72603;SDS011;60645;56.968;24.196;2022-08-01T07:03:34;0.65;;;0.20;;
72603;SDS011;60645;56.968;24.196;2022-08-01T07:06:19;2.70;;;0.35;;
72603;SDS011;60645;56.968;24.196;2022-08-01T07:08:46;3.00;;;0.47;;
72603;SDS011;60645;56.968;24.196;2022-08-01T07:11:13;0.90;;;0.43;;
72603;SDS011;60645;56.968;24.196;2022-08-01T07:13:40;0.68;;;0.47;;
72603;SDS011;60645;56.968;24.196;2022-08-01T07:16:11;0.98;;;0.20;;
72603;SDS011;60645;56.968;24.196;2022-08-01T07:18:39;0.73;;;0.45;;
72603;SDS011;60645;56.968;24.196;2022-08-01T07:21:06;1.58;;;0.50;;
72603;SDS011;60645;56.968;24.196;2022-08-01T07:23:53;1.13;;;0.50;;
72603;SDS011;60645;56.968;24.196;2022-08-01T07:26:21;0.88;;;0.43;;
72603;SDS011;60645;56.968;24.196;2022-08-01T07:28:49;1.40;;;0.30;;
72603;SDS011;60645;56.968;24.196;2022-08-01T07:31:15;0.50;;;0.22;;
72603;SDS011;60645;56.968;24.196;2022-08-01T07:33:42;0.70;;;0.30;;
72603;SDS011;60645;56.968;24.196;2022-08-01T07:36:17;1.40;;;0.38;;
72603;SDS011;60645;56.968;24.196;2022-08-01T07:41:12;1.95;;;0.43;;
72603;SDS011;60645;56.968;24.196;2022-08-01T07:43:39;0.90;;;0.22;;
72603;SDS011;60645;56.968;24.196;2022-08-01T07:46:18;1.23;;;0.30;;
72603;SDS011;60645;56.968;24.196;2022-08-01T07:48:45;0.85;;;0.13;;
72603;SDS011;60645;56.968;24.196;2022-08-01T07:51:12;0.30;;;0.13;;
72603;SDS011;60645;56.968;24.196;2022-08-01T07:53:39;1.73;;;0.35;;
72603;SDS011;60645;56.968;24.196;2022-08-01T07:56:06;1.02;;;0.30;;
72603;SDS011;60645;56.968;24.196;2022-08-01T07:58:33;0.80;;;0.28;;
72603;SDS011;60645;56.968;24.196;2022-08-01T08:01:00;1.48;;;0.20;;
72603;SDS011;60645;56.968;24.196;2022-08-01T08:03:27;2.10;;;0.20;;
72603;SDS011;60645;56.968;24.196;2022-08-01T08:05:54;2.58;;;0.20;;
72603;SDS011;60645;56.968;24.196;2022-08-01T08:10:51;2.88;;;0.25;;
72603;SDS011;60645;56.968;24.196;2022-08-01T08:13:18;4.30;;;0.20;;
72603;SDS011;60645;56.968;24.196;2022-08-01T08:15:46;4.38;;;0.22;;
72603;SDS011;60645;56.968;24.196;2022-08-01T08:18:14;4.95;;;0.77;;
72603;SDS011;60645;56.968;24.196;2022-08-01T08:20:41;2.67;;;0.22;;
72603;SDS011;60645;56.968;24.196;2022-08-01T08:23:08;5.68;;;0.45;;
72603;SDS011;60645;56.968;24.196;2022-08-01T08:26:09;0.93;;;0.20;;
72603;SDS011;60645;56.968;24.196;2022-08-01T08:28:38;3.97;;;0.20;;
72603;SDS011;60645;56.968;24.196;2022-08-01T08:31:06;3.78;;;0.28;;
72603;SDS011;60645;56.968;24.196;2022-08-01T08:33:54;1.38;;;0.20;;
72603;SDS011;60645;56.968;24.196;2022-08-01T08:36:21;0.93;;;0.10;;
72603;SDS011;60645;56.968;24.196;2022-08-01T08:38:57;0.55;;;0.28;;
72603;SDS011;60645;56.968;24.196;2022-08-01T08:41:27;3.72;;;0.20;;
72603;SDS011;60645;56.968;24.196;2022-08-01T08:44:07;2.50;;;0.30;;
72603;SDS011;60645;56.968;24.196;2022-08-01T08:47:10;1.65;;;0.25;;
72603;SDS011;60645;56.968;24.196;2022-08-01T08:49:34;2.13;;;0.32;;
72603;SDS011;60645;56.968;24.196;2022-08-01T08:52:03;1.42;;;0.30;;
72603;SDS011;60645;56.968;24.196;2022-08-01T08:54:34;1.75;;;0.22;;
72603;SDS011;60645;56.968;24.196;2022-08-01T08:57:05;1.40;;;0.20;;
72603;SDS011;60645;56.968;24.196;2022-08-01T08:59:33;4.18;;;0.50;;
72603;SDS011;60645;56.968;24.196;2022-08-01T09:02:00;2.33;;;0.63;;
72603;SDS011;60645;56.968;24.196;2022-08-01T09:04:27;6.63;;;0.22;;
72603;SDS011;60645;56.968;24.196;2022-08-01T09:06:54;4.03;;;0.50;;
72603;SDS011;60645;56.968;24.196;2022-08-01T09:09:21;4.18;;;0.32;;
72603;SDS011;60645;56.968;24.196;2022-08-01T09:11:49;1.67;;;0.30;;
72603;SDS011;60645;56.968;24.196;2022-08-01T09:19:40;3.60;;;0.35;;
72603;SDS011;60645;56.968;24.196;2022-08-01T09:22:12;3.13;;;0.43;;
72603;SDS011;60645;56.968;24.196;2022-08-01T09:27:32;4.78;;;0.55;;
72603;SDS011;60645;56.968;24.196;2022-08-01T09:33:00;2.95;;;0.22;;
72603;SDS011;60645;56.968;24.196;2022-08-01T09:35:43;2.97;;;0.25;;
72603;SDS011;60645;56.968;24.196;2022-08-01T09:38:14;1.67;;;0.20;;
72603;SDS011;60645;56.968;24.196;2022-08-01T09:40:46;4.60;;;0.60;;
72603;SDS011;60645;56.968;24.196;2022-08-01T09:43:17;3.83;;;0.30;;
72603;SDS011;60645;56.968;24.196;2022-08-01T09:45:44;5.07;;;0.28;;
72603;SDS011;60645;56.968;24.196;2022-08-01T09:48:19;1.00;;;0.30;;
72603;SDS011;60645;56.968;24.196;2022-08-01T09:50:55;1.63;;;0.25;;
72603;SDS011;60645;56.968;24.196;2022-08-01T09:53:44;1.80;;;0.20;;
72603;SDS011;60645;56.968;24.196;2022-08-01T09:56:18;2.42;;;0.32;;
72603;SDS011;60645;56.968;24.196;2022-08-01T09:58:48;1.77;;;0.10;;
72603;SDS011;60645;56.968;24.196;2022-08-01T10:01:26;0.50;;;0.10;;
72603;SDS011;60645;56.968;24.196;2022-08-01T10:04:10;0.98;;;0.22;;
72603;SDS011;60645;56.968;24.196;2022-08-01T10:06:38;3.72;;;0.20;;
72603;SDS011;60645;56.968;24.196;2022-08-01T10:09:07;2.05;;;0.30;;
72603;SDS011;60645;56.968;24.196;2022-08-01T10:11:34;1.60;;;0.43;;
72603;SDS011;60645;56.968;24.196;2022-08-01T10:14:06;1.45;;;0.30;;
72603;SDS011;60645;56.968;24.196;2022-08-01T10:16:36;2.22;;;0.20;;
72603;SDS011;60645;56.968;24.196;2022-08-01T10:19:05;0.50;;;0.20;;
72603;SDS011;60645;56.968;24.196;2022-08-01T10:21:40;1.92;;;0.22;;
72603;SDS011;60645;56.968;24.196;2022-08-01T10:24:25;0.55;;;0.13;;
72603;SDS011;60645;56.968;24.196;2022-08-01T10:26:59;1.85;;;0.20;;
72603;SDS011;60645;56.968;24.196;2022-08-01T10:29:46;0.60;;;0.32;;
72603;SDS011;60645;56.968;24.196;2022-08-01T10:32:32;0.35;;;0.35;;
72603;SDS011;60645;56.968;24.196;2022-08-01T10:35:02;0.70;;;0.50;;
72603;SDS011;60645;56.968;24.196;2022-08-01T10:37:33;0.40;;;0.17;;
72603;SDS011;60645;56.968;24.196;2022-08-01T10:40:18;1.15;;;0.50;;
72603;SDS011;60645;56.968;24.196;2022-08-01T10:43:02;1.40;;;0.15;;
72603;SDS011;60645;56.968;24.196;2022-08-01T10:45:29;0.45;;;0.30;;
72603;SDS011;60645;56.968;24.196;2022-08-01T10:48:06;0.52;;;0.10;;
72603;SDS011;60645;56.968;24.196;2022-08-01T10:50:47;0.57;;;0.40;;
72603;SDS011;60645;56.968;24.196;2022-08-01T10:53:20;1.70;;;0.20;;
72603;SDS011;60645;56.968;24.196;2022-08-01T10:55:58;2.40;;;0.30;;
72603;SDS011;60645;56.968;24.196;2022-08-01T11:01:24;1.02;;;0.20;;
72603;SDS011;60645;56.968;24.196;2022-08-01T11:09:03;2.60;;;0.20;;
72603;SDS011;60645;56.968;24.196;2022-08-01T11:11:32;3.63;;;0.32;;
72603;SDS011;60645;56.968;24.196;2022-08-01T11:14:19;0.90;;;0.22;;
72603;SDS011;60645;56.968;24.196;2022-08-01T11:16:55;0.73;;;0.25;;
72603;SDS011;60645;56.968;24.196;2022-08-01T11:19:22;0.40;;;0.20;;
72603;SDS011;60645;56.968;24.196;2022-08-01T11:27:22;2.00;;;0.30;;
72603;SDS011;60645;56.968;24.196;2022-08-01T11:35:35;1.63;;;0.38;;
72603;SDS011;60645;56.968;24.196;2022-08-01T11:41:08;1.88;;;0.50;;
72603;SDS011;60645;56.968;24.196;2022-08-01T11:43:35;4.43;;;0.40;;
72603;SDS011;60645;56.968;24.196;2022-08-01T11:46:44;2.85;;;0.60;;
72603;SDS011;60645;56.968;24.196;2022-08-01T11:57:23;2.63;;;0.50;;
72603;SDS011;60645;56.968;24.196;2022-08-01T12:00:05;2.38;;;0.32;;
72603;SDS011;60645;56.968;24.196;2022-08-01T12:02:43;1.05;;;0.30;;
72603;SDS011;60645;56.968;24.196;2022-08-01T12:05:13;3.80;;;0.45;;
72603;SDS011;60645;56.968;24.196;2022-08-01T12:07:43;1.13;;;0.30;;
72603;SDS011;60645;56.968;24.196;2022-08-01T12:10:13;1.00;;;0.40;;
72603;SDS011;60645;56.968;24.196;2022-08-01T12:12:45;3.33;;;0.32;;
72603;SDS011;60645;56.968;24.196;2022-08-01T12:15:14;3.40;;;0.25;;
72603;SDS011;60645;56.968;24.196;2022-08-01T12:17:44;1.52;;;0.30;;
72603;SDS011;60645;56.968;24.196;2022-08-01T12:20:24;2.70;;;0.57;;
72603;SDS011;60645;56.968;24.196;2022-08-01T12:22:57;1.35;;;0.43;;
72603;SDS011;60645;56.968;24.196;2022-08-01T12:25:29;0.60;;;0.38;;
72603;SDS011;60645;56.968;24.196;2022-08-01T12:27:59;2.25;;;0.55;;
72603;SDS011;60645;56.968;24.196;2022-08-01T12:30:30;1.13;;;0.35;;
72603;SDS011;60645;56.968;24.196;2022-08-01T12:33:05;1.35;;;0.35;;
72603;SDS011;60645;56.968;24.196;2022-08-01T12:35:34;2.30;;;0.25;;
72603;SDS011;60645;56.968;24.196;2022-08-01T12:38:04;1.77;;;0.45;;
72603;SDS011;60645;56.968;24.196;2022-08-01T12:43:05;2.03;;;0.30;;
72603;SDS011;60645;56.968;24.196;2022-08-01T12:45:44;1.77;;;0.43;;
72603;SDS011;60645;56.968;24.196;2022-08-01T12:48:21;3.72;;;0.50;;
72603;SDS011;60645;56.968;24.196;2022-08-01T12:50:49;1.10;;;0.32;;
72603;SDS011;60645;56.968;24.196;2022-08-01T12:53:18;0.45;;;0.20;;
72603;SDS011;60645;56.968;24.196;2022-08-01T12:55:53;2.30;;;0.45;;
72603;SDS011;60645;56.968;24.196;2022-08-01T12:58:33;1.92;;;0.43;;
72603;SDS011;60645;56.968;24.196;2022-08-01T13:01:10;3.08;;;0.30;;
72603;SDS011;60645;56.968;24.196;2022-08-01T13:03:38;0.52;;;0.32;;
72603;SDS011;60645;56.968;24.196;2022-08-01T13:06:12;1.17;;;0.52;;
72603;SDS011;60645;56.968;24.196;2022-08-01T13:08:43;1.85;;;0.40;;
72603;SDS011;60645;56.968;24.196;2022-08-01T13:11:11;1.30;;;0.77;;
72603;SDS011;60645;56.968;24.196;2022-08-01T13:13:47;1.40;;;0.68;;
72603;SDS011;60645;56.968;24.196;2022-08-01T13:16:19;1.40;;;0.60;;
72603;SDS011;60645;56.968;24.196;2022-08-01T13:19:03;0.70;;;0.40;;
72603;SDS011;60645;56.968;24.196;2022-08-01T13:21:32;1.45;;;0.57;;
72603;SDS011;60645;56.968;24.196;2022-08-01T13:24:28;1.58;;;0.80;;
72603;SDS011;60645;56.968;24.196;2022-08-01T13:26:57;2.28;;;0.63;;
72603;SDS011;60645;56.968;24.196;2022-08-01T13:29:30;0.88;;;0.50;;
72603;SDS011;60645;56.968;24.196;2022-08-01T13:32:21;1.05;;;0.45;;
72603;SDS011;60645;56.968;24.196;2022-08-01T13:35:29;3.75;;;0.75;;
72603;SDS011;60645;56.968;24.196;2022-08-01T13:37:48;1.33;;;0.43;;
72603;SDS011;60645;56.968;24.196;2022-08-01T13:40:23;1.50;;;0.77;;
72603;SDS011;60645;56.968;24.196;2022-08-01T13:42:52;2.45;;;0.47;;
72603;SDS011;60645;56.968;24.196;2022-08-01T13:45:21;1.60;;;0.93;;
72603;SDS011;60645;56.968;24.196;2022-08-01T13:47:51;1.95;;;0.50;;
72603;SDS011;60645;56.968;24.196;2022-08-01T13:50:38;1.60;;;0.63;;
72603;SDS011;60645;56.968;24.196;2022-08-01T13:53:05;1.35;;;0.93;;
72603;SDS011;60645;56.968;24.196;2022-08-01T13:55:32;2.00;;;1.02;;
72603;SDS011;60645;56.968;24.196;2022-08-01T13:58:00;1.65;;;0.95;;
72603;SDS011;60645;56.968;24.196;2022-08-01T14:00:29;1.63;;;0.93;;
72603;SDS011;60645;56.968;24.196;2022-08-01T14:02:56;2.78;;;1.10;;
72603;SDS011;60645;56.968;24.196;2022-08-01T14:05:23;1.88;;;0.93;;
72603;SDS011;60645;56.968;24.196;2022-08-01T14:07:50;1.63;;;0.80;;
72603;SDS011;60645;56.968;24.196;2022-08-01T14:10:21;1.98;;;1.00;;
72603;SDS011;60645;56.968;24.196;2022-08-01T14:12:48;2.22;;;1.23;;
72603;SDS011;60645;56.968;24.196;2022-08-01T14:15:16;1.48;;;1.00;;
72603;SDS011;60645;56.968;24.196;2022-08-01T14:18:03;1.38;;;1.02;;
72603;SDS011;60645;56.968;24.196;2022-08-01T14:20:31;2.20;;;1.20;;
72603;SDS011;60645;56.968;24.196;2022-08-01T14:22:59;1.92;;;0.98;;
72603;SDS011;60645;56.968;24.196;2022-08-01T14:25:26;1.55;;;1.33;;
72603;SDS011;60645;56.968;24.196;2022-08-01T14:28:13;1.48;;;0.90;;
72603;SDS011;60645;56.968;24.196;2022-08-01T14:30:40;1.40;;;1.17;;
72603;SDS011;60645;56.968;24.196;2022-08-01T14:33:09;1.83;;;1.17;;
72603;SDS011;60645;56.968;24.196;2022-08-01T14:35:36;1.35;;;0.80;;
72603;SDS011;60645;56.968;24.196;2022-08-01T14:38:23;1.60;;;0.98;;
72603;SDS011;60645;56.968;24.196;2022-08-01T14:40:58;1.35;;;1.17;;
72603;SDS011;60645;56.968;24.196;2022-08-01T14:43:25;1.80;;;1.02;;
72603;SDS011;60645;56.968;24.196;2022-08-01T14:45:59;1.20;;;0.70;;
72603;SDS011;60645;56.968;24.196;2022-08-01T14:48:30;2.80;;;0.85;;
72603;SDS011;60645;56.968;24.196;2022-08-01T14:50:57;1.60;;;1.05;;
72603;SDS011;60645;56.968;24.196;2022-08-01T14:53:29;1.73;;;1.10;;
72603;SDS011;60645;56.968;24.196;2022-08-01T14:55:59;2.75;;;1.10;;
72603;SDS011;60645;56.968;24.196;2022-08-01T14:58:26;1.33;;;1.05;;
72603;SDS011;60645;56.968;24.196;2022-08-01T15:00:53;1.52;;;1.13;;
72603;SDS011;60645;56.968;24.196;2022-08-01T15:03:24;2.88;;;1.30;;
72603;SDS011;60645;56.968;24.196;2022-08-01T15:05:51;1.48;;;1.02;;
72603;SDS011;60645;56.968;24.196;2022-08-01T15:08:18;1.90;;;1.05;;
72603;SDS011;60645;56.968;24.196;2022-08-01T15:10:45;1.85;;;0.85;;
72603;SDS011;60645;56.968;24.196;2022-08-01T15:13:12;1.67;;;0.88;;
72603;SDS011;60645;56.968;24.196;2022-08-01T15:15:39;0.93;;;0.82;;
72603;SDS011;60645;56.968;24.196;2022-08-01T15:18:06;1.20;;;0.90;;
72603;SDS011;60645;56.968;24.196;2022-08-01T15:20:33;1.80;;;1.35;;
72603;SDS011;60645;56.968;24.196;2022-08-01T15:23:00;1.38;;;0.80;;
72603;SDS011;60645;56.968;24.196;2022-08-01T15:25:27;1.20;;;0.90;;
72603;SDS011;60645;56.968;24.196;2022-08-01T15:28:10;1.92;;;1.23;;
72603;SDS011;60645;56.968;24.196;2022-08-01T15:30:37;1.35;;;0.75;;
72603;SDS011;60645;56.968;24.196;2022-08-01T15:33:05;1.88;;;1.30;;
72603;SDS011;60645;56.968;24.196;2022-08-01T15:35:32;2.00;;;0.77;;
72603;SDS011;60645;56.968;24.196;2022-08-01T15:37:59;1.60;;;1.35;;
72603;SDS011;60645;56.968;24.196;2022-08-01T15:40:29;1.30;;;1.10;;
72603;SDS011;60645;56.968;24.196;2022-08-01T15:43:01;1.38;;;1.02;;
72603;SDS011;60645;56.968;24.196;2022-08-01T15:45:28;2.65;;;0.80;;
72603;SDS011;60645;56.968;24.196;2022-08-01T15:48:12;1.98;;;1.10;;
72603;SDS011;60645;56.968;24.196;2022-08-01T15:50:39;2.00;;;1.00;;
72603;SDS011;60645;56.968;24.196;2022-08-01T15:53:06;1.33;;;0.73;;
72603;SDS011;60645;56.968;24.196;2022-08-01T15:55:37;1.10;;;0.98;;
72603;SDS011;60645;56.968;24.196;2022-08-01T15:58:05;1.88;;;1.60;;
72603;SDS011;60645;56.968;24.196;2022-08-01T16:00:32;1.05;;;0.95;;